Time;durP1;ratioP1;P1;durP2;ratioP2;P2;SDS_P1;SDS_P2;PMS_P1;PMS_P2;Temp;Humidity;BMP_temperature;BMP_pressure;BME280_temperature;BME280_humidity;BME280_pressure;Samples;Min_cycle;Max_cycle;Signal;HPM_P1;HPM_P2
2019/05/24 00:01:07;;;;;;;7.349999;6.15;;;;;;;7.09;97.68555;95237.09;;;;
2019/05/24 00:02:24;;;;;;;7.349999;6.15;;;;;;;7.09;97.68555;95237.09;;;;
2019/05/24 00:04:35;;;;;;;6.900001;5.900001;;;;;;;7.04;98.19922;95239.18;;;;
2019/05/24 00:05:42;;;;;;;6.900001;5.900001;;;;;;;7.04;98.19922;95239.18;;;;
2019/05/24 00:07:06;;;;;;;6.900001;5.900001;;;;;;;7.04;98.19922;95239.18;;;;
2019/05/24 00:08:08;;;;;;;6.900001;5.900001;;;;;;;7.04;98.19922;95239.18;;;;
2019/05/24 00:09:16;;;;;;;6.900001;5.900001;;;;;;;7.04;98.19922;95239.18;;;;
2019/05/24 00:10:17;;;;;;;6.900001;5.900001;;;;;;;7.04;98.19922;95239.18;;;;
2019/05/24 00:11:18;;;;;;;6.900001;5.900001;;;;;;;7.04;98.19922;95239.18;;;;
2019/05/24 00:12:20;;;;;;;6.900001;5.900001;;;;;;;7.04;98.19922;95239.18;;;;
2019/05/24 00:13:22;;;;;;;6.900001;5.900001;;;;;;;7.04;98.19922;95239.18;;;;
2019/05/24 00:14:24;;;;;;;7.7;5.75;;;;;;;6.85;98.55762;95231.16;;;;
2019/05/24 00:15:25;;;;;;;7.7;5.75;;;;;;;6.85;98.55762;95231.16;;;;
2019/05/24 00:16:26;;;;;;;7.7;5.75;;;;;;;6.85;98.55762;95231.16;;;;
2019/05/24 00:17:28;;;;;;;7.7;5.75;;;;;;;6.85;98.55762;95231.16;;;;
2019/05/24 00:18:29;;;;;;;7.7;5.75;;;;;;;6.85;98.55762;95231.16;;;;
2019/05/24 00:19:30;;;;;;;7.7;5.75;;;;;;;6.85;98.55762;95231.16;;;;
2019/05/24 00:20:31;;;;;;;7.7;5.75;;;;;;;6.85;98.55762;95231.16;;;;
2019/05/24 00:21:33;;;;;;;7.7;5.75;;;;;;;6.85;98.55762;95231.16;;;;
2019/05/24 00:22:34;;;;;;;7.7;5.75;;;;;;;6.85;98.55762;95231.16;;;;
2019/05/24 00:23:35;;;;;;;7.7;5.75;;;;;;;6.85;98.55762;95231.16;;;;
2019/05/24 00:24:37;;;;;;;7.5;5.900001;;;;;;;6.74;98.93359;95216.97;;;;
2019/05/24 00:25:38;;;;;;;7.5;5.900001;;;;;;;6.74;98.93359;95216.97;;;;
2019/05/24 00:26:39;;;;;;;7.5;5.900001;;;;;;;6.74;98.93359;95216.97;;;;
2019/05/24 00:27:40;;;;;;;7.5;5.900001;;;;;;;6.74;98.93359;95216.97;;;;
2019/05/24 00:28:41;;;;;;;7.5;5.900001;;;;;;;6.74;98.93359;95216.97;;;;
2019/05/24 00:29:43;;;;;;;7.5;5.900001;;;;;;;6.74;98.93359;95216.97;;;;
2019/05/24 00:30:44;;;;;;;7.5;5.900001;;;;;;;6.74;98.93359;95216.97;;;;
2019/05/24 00:31:45;;;;;;;7.5;5.900001;;;;;;;6.74;98.93359;95216.97;;;;
2019/05/24 00:32:46;;;;;;;7.5;5.900001;;;;;;;6.74;98.93359;95216.97;;;;
2019/05/24 00:33:47;;;;;;;7.5;5.900001;;;;;;;6.74;98.93359;95216.97;;;;
2019/05/24 00:34:48;;;;;;;7.5;5.900001;;;;;;;6.74;98.93359;95216.97;;;;
2019/05/24 00:35:49;;;;;;;7.45;6.15;;;;;;;6.58;99.28418;95205.9;;;;
2019/05/24 00:36:51;;;;;;;7.45;6.15;;;;;;;6.58;99.28418;95205.9;;;;
2019/05/24 00:37:52;;;;;;;7.45;6.15;;;;;;;6.58;99.28418;95205.9;;;;
2019/05/24 00:38:53;;;;;;;7.45;6.15;;;;;;;6.58;99.28418;95205.9;;;;
2019/05/24 00:39:54;;;;;;;7.45;6.15;;;;;;;6.58;99.28418;95205.9;;;;
2019/05/24 00:40:55;;;;;;;7.45;6.15;;;;;;;6.58;99.28418;95205.9;;;;
2019/05/24 00:41:56;;;;;;;7.45;6.15;;;;;;;6.58;99.28418;95205.9;;;;
2019/05/24 00:42:57;;;;;;;7.45;6.15;;;;;;;6.58;99.28418;95205.9;;;;
2019/05/24 00:43:58;;;;;;;7.45;6.15;;;;;;;6.58;99.28418;95205.9;;;;
2019/05/24 00:44:59;;;;;;;7.45;6.15;;;;;;;6.58;99.28418;95205.9;;;;
2019/05/24 00:46:00;;;;;;;7.099999;5.55;;;;;;;6.49;99.60156;95196.86;;;;
2019/05/24 00:47:01;;;;;;;7.099999;5.55;;;;;;;6.49;99.60156;95196.86;;;;
2019/05/24 00:48:02;;;;;;;7.099999;5.55;;;;;;;6.49;99.60156;95196.86;;;;
2019/05/24 00:49:04;;;;;;;7.099999;5.55;;;;;;;6.49;99.60156;95196.86;;;;
2019/05/24 00:50:05;;;;;;;7.099999;5.55;;;;;;;6.49;99.60156;95196.86;;;;
2019/05/24 00:51:07;;;;;;;7.099999;5.55;;;;;;;6.49;99.60156;95196.86;;;;
2019/05/24 00:52:08;;;;;;;7.099999;5.55;;;;;;;6.49;99.60156;95196.86;;;;
2019/05/24 00:53:09;;;;;;;7.099999;5.55;;;;;;;6.49;99.60156;95196.86;;;;
2019/05/24 00:54:10;;;;;;;7.099999;5.55;;;;;;;6.49;99.60156;95196.86;;;;
2019/05/24 00:55:11;;;;;;;7.099999;5.55;;;;;;;6.49;99.60156;95196.86;;;;
2019/05/24 00:56:12;;;;;;;6.9;5.299999;;;;;;;6.33;99.83789;95193.7;;;;
2019/05/24 00:57:14;;;;;;;6.9;5.299999;;;;;;;6.33;99.83789;95193.7;;;;
2019/05/24 00:58:16;;;;;;;6.9;5.299999;;;;;;;6.33;99.83789;95193.7;;;;
2019/05/24 00:59:17;;;;;;;6.9;5.299999;;;;;;;6.33;99.83789;95193.7;;;;
2019/05/24 01:00:18;;;;;;;6.9;5.299999;;;;;;;6.33;99.83789;95193.7;;;;
2019/05/24 01:01:20;;;;;;;6.9;5.299999;;;;;;;6.33;99.83789;95193.7;;;;
2019/05/24 01:02:21;;;;;;;6.9;5.299999;;;;;;;6.33;99.83789;95193.7;;;;
2019/05/24 01:03:23;;;;;;;6.9;5.299999;;;;;;;6.33;99.83789;95193.7;;;;
2019/05/24 01:04:24;;;;;;;6.9;5.299999;;;;;;;6.33;99.83789;95193.7;;;;
2019/05/24 01:05:26;;;;;;;6.9;5.299999;;;;;;;6.33;99.83789;95193.7;;;;
2019/05/24 01:06:27;;;;;;;6.9;5.299999;;;;;;;6.33;99.83789;95193.7;;;;
2019/05/24 01:07:28;;;;;;;5.95;5.35;;;;;;;6.24;100;95200.87;;;;
2019/05/24 01:08:29;;;;;;;5.95;5.35;;;;;;;6.24;100;95200.87;;;;
2019/05/24 01:09:32;;;;;;;5.95;5.35;;;;;;;6.24;100;95200.87;;;;
2019/05/24 01:10:33;;;;;;;5.95;5.35;;;;;;;6.24;100;95200.87;;;;
2019/05/24 01:11:35;;;;;;;5.95;5.35;;;;;;;6.24;100;95200.87;;;;
2019/05/24 01:12:37;;;;;;;5.95;5.35;;;;;;;6.24;100;95200.87;;;;
2019/05/24 01:13:43;;;;;;;5.95;5.35;;;;;;;6.24;100;95200.87;;;;
2019/05/24 01:14:45;;;;;;;5.95;5.35;;;;;;;6.24;100;95200.87;;;;
2019/05/24 01:15:46;;;;;;;5.95;5.35;;;;;;;6.24;100;95200.87;;;;
2019/05/24 01:16:47;;;;;;;5.95;5.35;;;;;;;6.24;100;95200.87;;;;
2019/05/24 01:17:49;;;;;;;7.2;5.6;;;;;;;6.1;100;95206.77;;;;
2019/05/24 01:18:50;;;;;;;7.2;5.6;;;;;;;6.1;100;95206.77;;;;
2019/05/24 01:19:51;;;;;;;7.2;5.6;;;;;;;6.1;100;95206.77;;;;
2019/05/24 01:20:52;;;;;;;7.2;5.6;;;;;;;6.1;100;95206.77;;;;
2019/05/24 01:21:54;;;;;;;7.2;5.6;;;;;;;6.1;100;95206.77;;;;
2019/05/24 01:22:55;;;;;;;7.2;5.6;;;;;;;6.1;100;95206.77;;;;
2019/05/24 01:23:56;;;;;;;7.2;5.6;;;;;;;6.1;100;95206.77;;;;
2019/05/24 01:24:57;;;;;;;7.2;5.6;;;;;;;6.1;100;95206.77;;;;
2019/05/24 01:25:58;;;;;;;7.2;5.6;;;;;;;6.1;100;95206.77;;;;
2019/05/24 01:26:59;;;;;;;7.2;5.6;;;;;;;6.1;100;95206.77;;;;
2019/05/24 01:28:00;;;;;;;8.799998;5.849999;;;;;;;6.04;100;95198.77;;;;
2019/05/24 01:29:02;;;;;;;8.799998;5.849999;;;;;;;6.04;100;95198.77;;;;
2019/05/24 01:30:03;;;;;;;8.799998;5.849999;;;;;;;6.04;100;95198.77;;;;
2019/05/24 01:31:05;;;;;;;8.799998;5.849999;;;;;;;6.04;100;95198.77;;;;
2019/05/24 01:32:06;;;;;;;8.799998;5.849999;;;;;;;6.04;100;95198.77;;;;
2019/05/24 01:33:09;;;;;;;8.799998;5.849999;;;;;;;6.04;100;95198.77;;;;
2019/05/24 01:34:10;;;;;;;8.799998;5.849999;;;;;;;6.04;100;95198.77;;;;
2019/05/24 01:35:11;;;;;;;8.799998;5.849999;;;;;;;6.04;100;95198.77;;;;
2019/05/24 01:36:12;;;;;;;8.799998;5.849999;;;;;;;6.04;100;95198.77;;;;
2019/05/24 01:37:14;;;;;;;8.799998;5.849999;;;;;;;6.04;100;95198.77;;;;
2019/05/24 01:38:15;;;;;;;8.799998;5.849999;;;;;;;6.04;100;95198.77;;;;
2019/05/24 01:39:16;;;;;;;7.050001;6.15;;;;;;;5.91;100;95186.74;;;;
2019/05/24 01:40:17;;;;;;;7.050001;6.15;;;;;;;5.91;100;95186.74;;;;
2019/05/24 01:41:19;;;;;;;7.050001;6.15;;;;;;;5.91;100;95186.74;;;;
2019/05/24 01:42:20;;;;;;;7.050001;6.15;;;;;;;5.91;100;95186.74;;;;
2019/05/24 01:43:21;;;;;;;7.050001;6.15;;;;;;;5.91;100;95186.74;;;;
2019/05/24 01:44:23;;;;;;;7.050001;6.15;;;;;;;5.91;100;95186.74;;;;
2019/05/24 01:45:25;;;;;;;7.050001;6.15;;;;;;;5.91;100;95186.74;;;;
2019/05/24 01:46:26;;;;;;;7.050001;6.15;;;;;;;5.91;100;95186.74;;;;
2019/05/24 01:47:28;;;;;;;7.050001;6.15;;;;;;;5.91;100;95186.74;;;;
2019/05/24 01:48:29;;;;;;;7.050001;6.15;;;;;;;5.91;100;95186.74;;;;
2019/05/24 01:49:30;;;;;;;7.4;6.149999;;;;;;;5.84;100;95179.13;;;;
2019/05/24 01:50:31;;;;;;;7.4;6.149999;;;;;;;5.84;100;95179.13;;;;
2019/05/24 01:51:32;;;;;;;7.4;6.149999;;;;;;;5.84;100;95179.13;;;;
2019/05/24 01:52:34;;;;;;;7.4;6.149999;;;;;;;5.84;100;95179.13;;;;
2019/05/24 01:53:35;;;;;;;7.4;6.149999;;;;;;;5.84;100;95179.13;;;;
2019/05/24 01:54:36;;;;;;;7.4;6.149999;;;;;;;5.84;100;95179.13;;;;
2019/05/24 01:55:38;;;;;;;7.4;6.149999;;;;;;;5.84;100;95179.13;;;;
2019/05/24 01:56:39;;;;;;;7.4;6.149999;;;;;;;5.84;100;95179.13;;;;
2019/05/24 01:57:40;;;;;;;7.4;6.149999;;;;;;;5.84;100;95179.13;;;;
2019/05/24 01:58:41;;;;;;;7.4;6.149999;;;;;;;5.84;100;95179.13;;;;
2019/05/24 01:59:42;;;;;;;7.4;6.149999;;;;;;;5.84;100;95179.13;;;;
2019/05/24 02:00:43;;;;;;;7.4;6.149999;;;;;;;5.84;100;95179.13;;;;
2019/05/24 02:01:45;;;;;;;7.4;6.149999;;;;;;;5.84;100;95179.13;;;;
2019/05/24 02:02:46;;;;;;;7.4;6.149999;;;;;;;5.84;100;95179.13;;;;
2019/05/24 02:03:47;;;;;;;7.4;6.149999;;;;;;;5.84;100;95179.13;;;;
2019/05/24 02:04:48;;;;;;;7.4;6.149999;;;;;;;5.84;100;95179.13;;;;
2019/05/24 02:05:50;;;;;;;7.4;6.149999;;;;;;;5.84;100;95179.13;;;;
2019/05/24 02:06:51;;;;;;;7.4;6.149999;;;;;;;5.84;100;95179.13;;;;
2019/05/24 02:07:52;;;;;;;7.4;6.149999;;;;;;;5.84;100;95179.13;;;;
2019/05/24 02:08:53;;;;;;;7.4;6.149999;;;;;;;5.84;100;95179.13;;;;
2019/05/24 02:09:54;;;;;;;7.4;6.149999;;;;;;;5.84;100;95179.13;;;;
2019/05/24 02:10:55;;;;;;;6.849999;5.8;;;;;;;5.65;100;95167.89;;;;
2019/05/24 02:11:56;;;;;;;6.849999;5.8;;;;;;;5.65;100;95167.89;;;;
2019/05/24 02:12:57;;;;;;;6.849999;5.8;;;;;;;5.65;100;95167.89;;;;
2019/05/24 02:13:59;;;;;;;6.849999;5.8;;;;;;;5.65;100;95167.89;;;;
2019/05/24 02:15:00;;;;;;;6.849999;5.8;;;;;;;5.65;100;95167.89;;;;
2019/05/24 02:16:01;;;;;;;6.849999;5.8;;;;;;;5.65;100;95167.89;;;;
2019/05/24 02:17:03;;;;;;;6.849999;5.8;;;;;;;5.65;100;95167.89;;;;
2019/05/24 02:18:05;;;;;;;6.849999;5.8;;;;;;;5.65;100;95167.89;;;;
2019/05/24 02:19:06;;;;;;;6.849999;5.8;;;;;;;5.65;100;95167.89;;;;
2019/05/24 02:20:08;;;;;;;6.849999;5.8;;;;;;;5.65;100;95167.89;;;;
2019/05/24 02:21:10;;;;;;;8.449999;5.95;;;;;;;5.5;100;95161.13;;;;
2019/05/24 02:22:11;;;;;;;8.449999;5.95;;;;;;;5.5;100;95161.13;;;;
2019/05/24 02:23:12;;;;;;;8.449999;5.95;;;;;;;5.5;100;95161.13;;;;
2019/05/24 02:24:13;;;;;;;8.449999;5.95;;;;;;;5.5;100;95161.13;;;;
2019/05/24 02:25:14;;;;;;;8.449999;5.95;;;;;;;5.5;100;95161.13;;;;
2019/05/24 02:26:15;;;;;;;8.449999;5.95;;;;;;;5.5;100;95161.13;;;;
2019/05/24 02:27:17;;;;;;;8.449999;5.95;;;;;;;5.5;100;95161.13;;;;
2019/05/24 02:28:18;;;;;;;8.449999;5.95;;;;;;;5.5;100;95161.13;;;;
2019/05/24 02:29:19;;;;;;;8.449999;5.95;;;;;;;5.5;100;95161.13;;;;
2019/05/24 02:30:20;;;;;;;8.449999;5.95;;;;;;;5.5;100;95161.13;;;;
2019/05/24 02:31:22;;;;;;;7.15;6.450001;;;;;;;5.42;100;95146.5;;;;
2019/05/24 02:32:23;;;;;;;7.15;6.450001;;;;;;;5.42;100;95146.5;;;;
2019/05/24 02:33:24;;;;;;;7.15;6.450001;;;;;;;5.42;100;95146.5;;;;
2019/05/24 02:34:25;;;;;;;7.15;6.450001;;;;;;;5.42;100;95146.5;;;;
2019/05/24 02:35:26;;;;;;;7.15;6.450001;;;;;;;5.42;100;95146.5;;;;
2019/05/24 02:36:28;;;;;;;7.15;6.450001;;;;;;;5.42;100;95146.5;;;;
2019/05/24 02:37:29;;;;;;;7.15;6.450001;;;;;;;5.42;100;95146.5;;;;
2019/05/24 02:38:30;;;;;;;7.15;6.450001;;;;;;;5.42;100;95146.5;;;;
2019/05/24 02:39:31;;;;;;;7.15;6.450001;;;;;;;5.42;100;95146.5;;;;
2019/05/24 02:40:33;;;;;;;7.15;6.450001;;;;;;;5.42;100;95146.5;;;;
2019/05/24 02:41:34;;;;;;;7.15;6.450001;;;;;;;5.42;100;95146.5;;;;
2019/05/24 02:42:35;;;;;;;7.5;6;;;;;;;5.29;100;95142.91;;;;
2019/05/24 02:43:36;;;;;;;7.5;6;;;;;;;5.29;100;95142.91;;;;
2019/05/24 02:44:37;;;;;;;7.5;6;;;;;;;5.29;100;95142.91;;;;
2019/05/24 02:45:38;;;;;;;7.5;6;;;;;;;5.29;100;95142.91;;;;
2019/05/24 02:46:39;;;;;;;7.5;6;;;;;;;5.29;100;95142.91;;;;
2019/05/24 02:47:41;;;;;;;7.5;6;;;;;;;5.29;100;95142.91;;;;
2019/05/24 02:48:42;;;;;;;7.5;6;;;;;;;5.29;100;95142.91;;;;
2019/05/24 02:49:43;;;;;;;7.5;6;;;;;;;5.29;100;95142.91;;;;
2019/05/24 02:50:44;;;;;;;7.5;6;;;;;;;5.29;100;95142.91;;;;
2019/05/24 02:51:45;;;;;;;7.5;6;;;;;;;5.29;100;95142.91;;;;
2019/05/24 02:52:46;;;;;;;7.4;6.599999;;;;;;;5.23;100;95146.01;;;;
2019/05/24 02:53:47;;;;;;;7.4;6.599999;;;;;;;5.23;100;95146.01;;;;
2019/05/24 02:54:48;;;;;;;7.4;6.599999;;;;;;;5.23;100;95146.01;;;;
2019/05/24 02:55:49;;;;;;;7.4;6.599999;;;;;;;5.23;100;95146.01;;;;
2019/05/24 02:56:50;;;;;;;7.4;6.599999;;;;;;;5.23;100;95146.01;;;;
2019/05/24 02:57:52;;;;;;;7.4;6.599999;;;;;;;5.23;100;95146.01;;;;
2019/05/24 02:58:53;;;;;;;7.4;6.599999;;;;;;;5.23;100;95146.01;;;;
2019/05/24 02:59:54;;;;;;;7.4;6.599999;;;;;;;5.23;100;95146.01;;;;
2019/05/24 03:00:55;;;;;;;7.4;6.599999;;;;;;;5.23;100;95146.01;;;;
2019/05/24 03:05:39;;;;;;;8.1;6.499999;;;;;;;5.12;100;95149.81;;;;
2019/05/24 03:06:40;;;;;;;8.1;6.499999;;;;;;;5.12;100;95149.81;;;;
2019/05/24 03:07:41;;;;;;;8.1;6.499999;;;;;;;5.12;100;95149.81;;;;
2019/05/24 03:08:42;;;;;;;8.1;6.499999;;;;;;;5.12;100;95149.81;;;;
2019/05/24 03:09:43;;;;;;;8.1;6.499999;;;;;;;5.12;100;95149.81;;;;
2019/05/24 03:10:45;;;;;;;8.1;6.499999;;;;;;;5.12;100;95149.81;;;;
2019/05/24 03:11:46;;;;;;;8.1;6.499999;;;;;;;5.12;100;95149.81;;;;
2019/05/24 03:12:47;;;;;;;8.1;6.499999;;;;;;;5.12;100;95149.81;;;;
2019/05/24 03:13:48;;;;;;;9.700001;6.550001;;;;;;;5.07;100;95153.63;;;;
2019/05/24 03:14:49;;;;;;;9.700001;6.550001;;;;;;;5.07;100;95153.63;;;;
2019/05/24 03:15:50;;;;;;;9.700001;6.550001;;;;;;;5.07;100;95153.63;;;;
2019/05/24 03:16:51;;;;;;;9.700001;6.550001;;;;;;;5.07;100;95153.63;;;;
2019/05/24 03:17:52;;;;;;;9.700001;6.550001;;;;;;;5.07;100;95153.63;;;;
2019/05/24 03:18:54;;;;;;;9.700001;6.550001;;;;;;;5.07;100;95153.63;;;;
2019/05/24 03:19:55;;;;;;;9.700001;6.550001;;;;;;;5.07;100;95153.63;;;;
2019/05/24 03:20:56;;;;;;;9.700001;6.550001;;;;;;;5.07;100;95153.63;;;;
2019/05/24 03:21:57;;;;;;;9.700001;6.550001;;;;;;;5.07;100;95153.63;;;;
2019/05/24 03:22:58;;;;;;;9.700001;6.550001;;;;;;;5.07;100;95153.63;;;;
2019/05/24 03:23:59;;;;;;;9.700001;6.550001;;;;;;;5.07;100;95153.63;;;;
2019/05/24 03:25:00;;;;;;;8.950002;6.7;;;;;;;4.97;100;95150.01;;;;
2019/05/24 03:26:02;;;;;;;8.950002;6.7;;;;;;;4.97;100;95150.01;;;;
2019/05/24 03:27:03;;;;;;;8.950002;6.7;;;;;;;4.97;100;95150.01;;;;
2019/05/24 03:28:04;;;;;;;8.950002;6.7;;;;;;;4.97;100;95150.01;;;;
2019/05/24 03:29:05;;;;;;;8.950002;6.7;;;;;;;4.97;100;95150.01;;;;
2019/05/24 03:30:06;;;;;;;8.950002;6.7;;;;;;;4.97;100;95150.01;;;;
2019/05/24 03:31:07;;;;;;;8.950002;6.7;;;;;;;4.97;100;95150.01;;;;
2019/05/24 03:32:08;;;;;;;8.950002;6.7;;;;;;;4.97;100;95150.01;;;;
2019/05/24 03:33:10;;;;;;;8.950002;6.7;;;;;;;4.97;100;95150.01;;;;
2019/05/24 03:34:11;;;;;;;8.950002;6.7;;;;;;;4.97;100;95150.01;;;;
2019/05/24 03:35:12;;;;;;;7.099999;6.4;;;;;;;4.98;100;95156.06;;;;
2019/05/24 03:36:13;;;;;;;7.099999;6.4;;;;;;;4.98;100;95156.06;;;;
2019/05/24 03:37:14;;;;;;;7.099999;6.4;;;;;;;4.98;100;95156.06;;;;
2019/05/24 03:38:15;;;;;;;7.099999;6.4;;;;;;;4.98;100;95156.06;;;;
2019/05/24 03:39:16;;;;;;;7.099999;6.4;;;;;;;4.98;100;95156.06;;;;
2019/05/24 03:40:17;;;;;;;7.099999;6.4;;;;;;;4.98;100;95156.06;;;;
2019/05/24 03:41:19;;;;;;;7.099999;6.4;;;;;;;4.98;100;95156.06;;;;
2019/05/24 03:42:20;;;;;;;7.099999;6.4;;;;;;;4.98;100;95156.06;;;;
2019/05/24 03:43:21;;;;;;;7.099999;6.4;;;;;;;4.98;100;95156.06;;;;
2019/05/24 03:44:22;;;;;;;7.099999;6.4;;;;;;;4.98;100;95156.06;;;;
2019/05/24 03:45:23;;;;;;;8.6;7.050001;;;;;;;4.94;100;95146;;;;
2019/05/24 03:46:24;;;;;;;8.6;7.050001;;;;;;;4.94;100;95146;;;;
2019/05/24 03:47:25;;;;;;;8.6;7.050001;;;;;;;4.94;100;95146;;;;
2019/05/24 03:48:26;;;;;;;8.6;7.050001;;;;;;;4.94;100;95146;;;;
2019/05/24 03:49:27;;;;;;;8.6;7.050001;;;;;;;4.94;100;95146;;;;
2019/05/24 03:50:29;;;;;;;8.6;7.050001;;;;;;;4.94;100;95146;;;;
2019/05/24 03:51:30;;;;;;;8.6;7.050001;;;;;;;4.94;100;95146;;;;
2019/05/24 03:52:31;;;;;;;8.6;7.050001;;;;;;;4.94;100;95146;;;;
2019/05/24 03:53:32;;;;;;;8.6;7.050001;;;;;;;4.94;100;95146;;;;
2019/05/24 03:54:33;;;;;;;8.6;7.050001;;;;;;;4.94;100;95146;;;;
2019/05/24 03:55:53;;;;;;;8.6;7.050001;;;;;;;4.94;100;95146;;;;
2019/05/24 03:56:54;;;;;;;8.1;7.099999;;;;;;;5.02;100;95151.12;;;;
2019/05/24 03:57:56;;;;;;;8.1;7.099999;;;;;;;5.02;100;95151.12;;;;
2019/05/24 03:58:57;;;;;;;8.1;7.099999;;;;;;;5.02;100;95151.12;;;;
2019/05/24 03:59:58;;;;;;;8.1;7.099999;;;;;;;5.02;100;95151.12;;;;
2019/05/24 04:00:59;;;;;;;8.1;7.099999;;;;;;;5.02;100;95151.12;;;;
2019/05/24 04:02:00;;;;;;;8.1;7.099999;;;;;;;5.02;100;95151.12;;;;
2019/05/24 04:03:01;;;;;;;8.1;7.099999;;;;;;;5.02;100;95151.12;;;;
2019/05/24 04:04:02;;;;;;;8.1;7.099999;;;;;;;5.02;100;95151.12;;;;
2019/05/24 04:05:03;;;;;;;8.1;7.099999;;;;;;;5.02;100;95151.12;;;;
2019/05/24 04:06:04;;;;;;;8.1;7.099999;;;;;;;5.02;100;95151.12;;;;
2019/05/24 04:07:06;;;;;;;9.450002;8.1;;;;;;;5.06;100;95150.62;;;;
2019/05/24 04:08:07;;;;;;;9.450002;8.1;;;;;;;5.06;100;95150.62;;;;
2019/05/24 04:09:08;;;;;;;9.450002;8.1;;;;;;;5.06;100;95150.62;;;;
2019/05/24 04:10:09;;;;;;;9.450002;8.1;;;;;;;5.06;100;95150.62;;;;
2019/05/24 04:11:15;;;;;;;9.450002;8.1;;;;;;;5.06;100;95150.62;;;;
2019/05/24 04:12:16;;;;;;;9.450002;8.1;;;;;;;5.06;100;95150.62;;;;
2019/05/24 04:13:17;;;;;;;9.450002;8.1;;;;;;;5.06;100;95150.62;;;;
2019/05/24 04:14:18;;;;;;;9.450002;8.1;;;;;;;5.06;100;95150.62;;;;
2019/05/24 04:15:19;;;;;;;9.450002;8.1;;;;;;;5.06;100;95150.62;;;;
2019/05/24 04:16:20;;;;;;;9.450002;8.1;;;;;;;5.06;100;95150.62;;;;
2019/05/24 04:17:21;;;;;;;9.099998;7.749999;;;;;;;5.19;100;95154.55;;;;
2019/05/24 04:18:22;;;;;;;9.099998;7.749999;;;;;;;5.19;100;95154.55;;;;
2019/05/24 04:19:23;;;;;;;9.099998;7.749999;;;;;;;5.19;100;95154.55;;;;
2019/05/24 04:20:25;;;;;;;9.099998;7.749999;;;;;;;5.19;100;95154.55;;;;
2019/05/24 04:21:26;;;;;;;9.099998;7.749999;;;;;;;5.19;100;95154.55;;;;
2019/05/24 04:22:27;;;;;;;9.099998;7.749999;;;;;;;5.19;100;95154.55;;;;
2019/05/24 04:23:28;;;;;;;9.099998;7.749999;;;;;;;5.19;100;95154.55;;;;
2019/05/24 04:24:29;;;;;;;9.099998;7.749999;;;;;;;5.19;100;95154.55;;;;
2019/05/24 04:25:30;;;;;;;9.099998;7.749999;;;;;;;5.19;100;95154.55;;;;
2019/05/24 04:26:31;;;;;;;9.099998;7.749999;;;;;;;5.19;100;95154.55;;;;
2019/05/24 04:27:32;;;;;;;9.099998;7.749999;;;;;;;5.19;100;95154.55;;;;
2019/05/24 04:28:33;;;;;;;9.700002;8;;;;;;;5.3;100;95148.58;;;;
2019/05/24 04:29:34;;;;;;;9.700002;8;;;;;;;5.3;100;95148.58;;;;
2019/05/24 04:30:35;;;;;;;9.700002;8;;;;;;;5.3;100;95148.58;;;;
2019/05/24 04:31:37;;;;;;;9.700002;8;;;;;;;5.3;100;95148.58;;;;
2019/05/24 04:32:38;;;;;;;9.700002;8;;;;;;;5.3;100;95148.58;;;;
2019/05/24 04:33:39;;;;;;;9.700002;8;;;;;;;5.3;100;95148.58;;;;
2019/05/24 04:34:40;;;;;;;9.700002;8;;;;;;;5.3;100;95148.58;;;;
2019/05/24 04:35:41;;;;;;;9.700002;8;;;;;;;5.3;100;95148.58;;;;
2019/05/24 04:36:42;;;;;;;9.700002;8;;;;;;;5.3;100;95148.58;;;;
2019/05/24 04:37:43;;;;;;;9.700002;8;;;;;;;5.3;100;95148.58;;;;
2019/05/24 04:38:44;;;;;;;11.5;8.900001;;;;;;;5.56;100;95155.75;;;;
2019/05/24 04:39:45;;;;;;;11.5;8.900001;;;;;;;5.56;100;95155.75;;;;
2019/05/24 04:40:54;;;;;;;11.5;8.900001;;;;;;;5.56;100;95155.75;;;;
2019/05/24 04:41:55;;;;;;;11.5;8.900001;;;;;;;5.56;100;95155.75;;;;
2019/05/24 04:42:56;;;;;;;11.5;8.900001;;;;;;;5.56;100;95155.75;;;;
2019/05/24 04:43:58;;;;;;;11.5;8.900001;;;;;;;5.56;100;95155.75;;;;
2019/05/24 04:44:59;;;;;;;11.5;8.900001;;;;;;;5.56;100;95155.75;;;;
2019/05/24 04:46:00;;;;;;;11.5;8.900001;;;;;;;5.56;100;95155.75;;;;
2019/05/24 04:47:01;;;;;;;11.5;8.900001;;;;;;;5.56;100;95155.75;;;;
2019/05/24 04:48:02;;;;;;;11.5;8.900001;;;;;;;5.56;100;95155.75;;;;
2019/05/24 04:49:03;;;;;;;10.7;8.399999;;;;;;;5.82;100;95164.26;;;;
2019/05/24 04:50:04;;;;;;;10.7;8.399999;;;;;;;5.82;100;95164.26;;;;
2019/05/24 04:51:06;;;;;;;10.7;8.399999;;;;;;;5.82;100;95164.26;;;;
2019/05/24 04:52:07;;;;;;;10.7;8.399999;;;;;;;5.82;100;95164.26;;;;
2019/05/24 04:53:08;;;;;;;10.7;8.399999;;;;;;;5.82;100;95164.26;;;;
2019/05/24 04:54:09;;;;;;;10.7;8.399999;;;;;;;5.82;100;95164.26;;;;
2019/05/24 04:55:10;;;;;;;10.7;8.399999;;;;;;;5.82;100;95164.26;;;;
2019/05/24 04:56:11;;;;;;;10.7;8.399999;;;;;;;5.82;100;95164.26;;;;
2019/05/24 04:57:12;;;;;;;10.7;8.399999;;;;;;;5.82;100;95164.26;;;;
2019/05/24 04:58:13;;;;;;;10.7;8.399999;;;;;;;5.82;100;95164.26;;;;
2019/05/24 04:59:15;;;;;;;10.7;8.399999;;;;;;;5.82;100;95164.26;;;;
2019/05/24 05:00:16;;;;;;;14.7;9.75;;;;;;;6.29;100;95158.58;;;;
2019/05/24 05:01:19;;;;;;;14.7;9.75;;;;;;;6.29;100;95158.58;;;;
2019/05/24 05:02:20;;;;;;;14.7;9.75;;;;;;;6.29;100;95158.58;;;;
2019/05/24 05:03:21;;;;;;;14.7;9.75;;;;;;;6.29;100;95158.58;;;;
2019/05/24 05:04:22;;;;;;;14.7;9.75;;;;;;;6.29;100;95158.58;;;;
2019/05/24 05:05:23;;;;;;;14.7;9.75;;;;;;;6.29;100;95158.58;;;;
2019/05/24 05:06:24;;;;;;;14.7;9.75;;;;;;;6.29;100;95158.58;;;;
2019/05/24 05:07:25;;;;;;;14.7;9.75;;;;;;;6.29;100;95158.58;;;;
2019/05/24 05:08:27;;;;;;;14.7;9.75;;;;;;;6.29;100;95158.58;;;;
2019/05/24 05:09:28;;;;;;;14.7;9.75;;;;;;;6.29;100;95158.58;;;;
2019/05/24 05:10:30;;;;;;;11.5;8.749999;;;;;;;6.93;100;95162.45;;;;
2019/05/24 05:11:31;;;;;;;11.5;8.749999;;;;;;;6.93;100;95162.45;;;;
2019/05/24 05:12:32;;;;;;;11.5;8.749999;;;;;;;6.93;100;95162.45;;;;
2019/05/24 05:13:33;;;;;;;11.5;8.749999;;;;;;;6.93;100;95162.45;;;;
2019/05/24 05:14:34;;;;;;;11.5;8.749999;;;;;;;6.93;100;95162.45;;;;
2019/05/24 05:15:35;;;;;;;11.5;8.749999;;;;;;;6.93;100;95162.45;;;;
2019/05/24 05:16:36;;;;;;;11.5;8.749999;;;;;;;6.93;100;95162.45;;;;
2019/05/24 05:17:37;;;;;;;11.5;8.749999;;;;;;;6.93;100;95162.45;;;;
2019/05/24 05:18:38;;;;;;;11.5;8.749999;;;;;;;6.93;100;95162.45;;;;
2019/05/24 05:19:39;;;;;;;11.5;8.749999;;;;;;;6.93;100;95162.45;;;;
2019/05/24 05:20:40;;;;;;;10.75;8.400001;;;;;;;7.79;100;95160.74;;;;
2019/05/24 05:21:41;;;;;;;10.75;8.400001;;;;;;;7.79;100;95160.74;;;;
2019/05/24 05:22:43;;;;;;;10.75;8.400001;;;;;;;7.79;100;95160.74;;;;
2019/05/24 05:23:44;;;;;;;10.75;8.400001;;;;;;;7.79;100;95160.74;;;;
2019/05/24 05:24:45;;;;;;;10.75;8.400001;;;;;;;7.79;100;95160.74;;;;
2019/05/24 05:25:46;;;;;;;10.75;8.400001;;;;;;;7.79;100;95160.74;;;;
2019/05/24 05:26:47;;;;;;;10.75;8.400001;;;;;;;7.79;100;95160.74;;;;
2019/05/24 05:27:48;;;;;;;10.75;8.400001;;;;;;;7.79;100;95160.74;;;;
2019/05/24 05:28:49;;;;;;;10.75;8.400001;;;;;;;7.79;100;95160.74;;;;
2019/05/24 05:29:50;;;;;;;10.75;8.400001;;;;;;;7.79;100;95160.74;;;;
2019/05/24 05:30:51;;;;;;;10.75;8.400001;;;;;;;7.79;100;95160.74;;;;
2019/05/24 05:31:52;;;;;;;8.35;7.1;;;;;;;8.54;100;95152.78;;;;
2019/05/24 05:32:53;;;;;;;8.35;7.1;;;;;;;8.54;100;95152.78;;;;
2019/05/24 05:33:54;;;;;;;8.35;7.1;;;;;;;8.54;100;95152.78;;;;
2019/05/24 05:34:55;;;;;;;8.35;7.1;;;;;;;8.54;100;95152.78;;;;
2019/05/24 05:35:57;;;;;;;8.35;7.1;;;;;;;8.54;100;95152.78;;;;
2019/05/24 05:36:58;;;;;;;8.35;7.1;;;;;;;8.54;100;95152.78;;;;
2019/05/24 05:37:59;;;;;;;8.35;7.1;;;;;;;8.54;100;95152.78;;;;
2019/05/24 05:39:00;;;;;;;8.35;7.1;;;;;;;8.54;100;95152.78;;;;
2019/05/24 05:40:01;;;;;;;8.35;7.1;;;;;;;8.54;100;95152.78;;;;
2019/05/24 05:41:03;;;;;;;8.35;7.1;;;;;;;8.54;100;95152.78;;;;
2019/05/24 05:42:04;;;;;;;8.100001;6.649999;;;;;;;9.3;100;95150.67;;;;
2019/05/24 05:43:05;;;;;;;8.100001;6.649999;;;;;;;9.3;100;95150.67;;;;
2019/05/24 05:44:06;;;;;;;8.100001;6.649999;;;;;;;9.3;100;95150.67;;;;
2019/05/24 05:45:07;;;;;;;8.100001;6.649999;;;;;;;9.3;100;95150.67;;;;
2019/05/24 05:46:08;;;;;;;8.100001;6.649999;;;;;;;9.3;100;95150.67;;;;
2019/05/24 05:47:09;;;;;;;8.100001;6.649999;;;;;;;9.3;100;95150.67;;;;
2019/05/24 05:48:12;;;;;;;8.100001;6.649999;;;;;;;9.3;100;95150.67;;;;
2019/05/24 05:49:13;;;;;;;8.100001;6.649999;;;;;;;9.3;100;95150.67;;;;
2019/05/24 05:50:14;;;;;;;8.100001;6.649999;;;;;;;9.3;100;95150.67;;;;
2019/05/24 05:51:15;;;;;;;8.100001;6.649999;;;;;;;9.3;100;95150.67;;;;
2019/05/24 05:52:16;;;;;;;8.100001;6.649999;;;;;;;9.3;100;95150.67;;;;
2019/05/24 05:53:17;;;;;;;8.850001;6.95;;;;;;;9.96;100;95152.12;;;;
2019/05/24 05:54:18;;;;;;;8.850001;6.95;;;;;;;9.96;100;95152.12;;;;
2019/05/24 05:55:19;;;;;;;8.850001;6.95;;;;;;;9.96;100;95152.12;;;;
2019/05/24 05:56:21;;;;;;;8.850001;6.95;;;;;;;9.96;100;95152.12;;;;
2019/05/24 05:57:22;;;;;;;8.850001;6.95;;;;;;;9.96;100;95152.12;;;;
2019/05/24 05:58:23;;;;;;;8.850001;6.95;;;;;;;9.96;100;95152.12;;;;
2019/05/24 05:59:24;;;;;;;8.850001;6.95;;;;;;;9.96;100;95152.12;;;;
2019/05/24 06:00:25;;;;;;;8.850001;6.95;;;;;;;9.96;100;95152.12;;;;
2019/05/24 06:01:26;;;;;;;8.850001;6.95;;;;;;;9.96;100;95152.12;;;;
2019/05/24 06:02:27;;;;;;;8.850001;6.95;;;;;;;9.96;100;95152.12;;;;
2019/05/24 06:03:28;;;;;;;6.95;6.25;;;;;;;10.68;100;95142.11;;;;
2019/05/24 06:04:30;;;;;;;6.95;6.25;;;;;;;10.68;100;95142.11;;;;